createdAt,value
2023-04-09T00:00:32.923Z,88.23
2023-04-09T00:01:35.178Z,88.23
2023-04-09T00:02:34.496Z,88.12
2023-04-09T00:03:32.904Z,88.12
2023-04-09T00:04:33.081Z,88.12
2023-04-09T00:05:34.877Z,88.37
2023-04-09T00:06:33.652Z,88.33
2023-04-09T00:07:32.917Z,88.33
2023-04-09T00:08:34.181Z,88.23
2023-04-09T00:09:34.496Z,88.33
2023-04-09T00:10:32.780Z,88.47
2023-04-09T00:11:34.036Z,88.47
2023-04-09T00:12:33.527Z,88.57
2023-04-09T00:13:39.201Z,88.57
2023-04-09T00:14:33.908Z,88.57
2023-04-09T00:15:34.186Z,88.68
2023-04-09T00:16:34.572Z,88.78
2023-04-09T00:17:33.869Z,88.89
2023-04-09T00:18:34.061Z,88.78
2023-04-09T00:19:33.367Z,88.68
2023-04-09T00:20:32.626Z,88.78
2023-04-09T00:21:33.886Z,88.78
2023-04-09T00:22:34.532Z,88.78
2023-04-09T00:23:32.460Z,88.78
2023-04-09T00:24:32.764Z,88.68
2023-04-09T00:25:34.011Z,88.57
2023-04-09T00:26:33.348Z,88.47
2023-04-09T00:27:32.557Z,88.47
2023-04-09T00:28:32.913Z,88.57
2023-04-09T00:29:34.100Z,88.68
2023-04-09T00:30:32.427Z,88.89
2023-04-09T00:31:32.692Z,88.89
2023-04-09T00:32:33.941Z,88.99
2023-04-09T00:33:34.216Z,89.09
2023-04-09T00:34:32.511Z,89.29
2023-04-09T00:35:32.844Z,89.40
2023-04-09T00:36:34.049Z,89.40
2023-04-09T00:37:32.338Z,89.50
2023-04-09T00:38:32.649Z,89.50
2023-04-09T00:39:33.910Z,89.50
2023-04-09T00:40:32.232Z,89.61
2023-04-09T00:41:32.570Z,89.61
2023-04-09T00:42:32.792Z,89.71
2023-04-09T00:43:33.152Z,89.71
2023-04-09T00:44:32.437Z,89.56
2023-04-09T00:45:33.751Z,89.56
2023-04-09T00:46:33.057Z,89.46
2023-04-09T00:47:32.318Z,89.25
2023-04-09T00:48:32.614Z,89.19
2023-04-09T00:49:32.917Z,89.15
2023-04-09T00:50:32.184Z,89.15
2023-04-09T00:51:32.527Z,89.15
2023-04-09T00:52:32.845Z,89.05
2023-04-09T00:53:32.042Z,89.05
2023-04-09T00:54:32.375Z,88.95
2023-04-09T00:55:32.634Z,88.99
2023-04-09T00:56:33.874Z,88.95
2023-04-09T00:57:32.168Z,89.05
2023-04-09T00:58:33.483Z,88.99
2023-04-09T00:59:32.780Z,89.09
2023-04-09T01:00:32.057Z,89.19
2023-04-09T01:01:32.491Z,89.19
2023-04-09T01:02:32.727Z,89.40
2023-04-09T01:03:31.998Z,89.50
2023-04-09T01:04:32.281Z,89.61
2023-04-09T01:05:32.564Z,89.71
2023-04-09T01:06:32.864Z,89.81
2023-04-09T01:07:32.144Z,89.81
2023-04-09T01:08:32.434Z,89.91
2023-04-09T01:09:33.733Z,90.01
2023-04-09T01:10:32.045Z,90.12
2023-04-09T01:11:32.392Z,90.12
2023-04-09T01:12:32.684Z,90.08
2023-04-09T01:13:31.949Z,89.87
2023-04-09T01:14:33.210Z,89.77
2023-04-09T01:15:32.566Z,89.56
2023-04-09T01:16:31.875Z,89.46
2023-04-09T01:17:32.297Z,89.36
2023-04-09T01:18:32.479Z,89.36
2023-04-09T01:19:31.743Z,89.36
2023-04-09T01:20:32.058Z,89.36
2023-04-09T01:21:32.362Z,89.46
2023-04-09T01:22:32.724Z,89.46
2023-04-09T01:23:31.850Z,89.36
2023-04-09T01:24:33.023Z,89.36
2023-04-09T01:25:32.372Z,89.46
2023-04-09T01:26:31.574Z,89.46
2023-04-09T01:27:31.838Z,89.46
2023-04-09T01:28:32.446Z,89.46
2023-04-09T01:29:33.319Z,89.36
2023-04-09T01:30:32.653Z,89.15
2023-04-09T01:31:31.855Z,88.95
2023-04-09T01:32:32.204Z,88.64
2023-04-09T01:33:32.390Z,88.64
2023-04-09T01:34:31.838Z,88.68
2023-04-09T01:35:31.909Z,88.89
2023-04-09T01:36:32.134Z,88.99
2023-04-09T01:37:33.377Z,89.09
2023-04-09T01:38:31.664Z,89.19
2023-04-09T01:39:31.957Z,89.29
2023-04-09T01:40:33.224Z,89.40
2023-04-09T01:41:31.457Z,89.50
2023-04-09T01:42:31.656Z,89.61
2023-04-09T01:43:31.924Z,89.81
2023-04-09T01:44:32.185Z,89.61
2023-04-09T01:45:31.525Z,89.54
2023-04-09T01:46:31.726Z,89.34
2023-04-09T01:47:31.983Z,89.13
2023-04-09T01:48:32.161Z,89.03
2023-04-09T01:49:31.390Z,89.03
2023-04-09T01:50:31.694Z,89.03
2023-04-09T01:51:31.936Z,89.03
2023-04-09T01:52:32.194Z,89.03
2023-04-09T01:53:31.430Z,88.92
2023-04-09T01:54:31.688Z,88.92
2023-04-09T01:55:31.984Z,88.82
2023-04-09T01:56:31.235Z,88.92
2023-04-09T01:57:31.507Z,88.92
2023-04-09T01:58:31.779Z,88.92
2023-04-09T01:59:32.053Z,88.92
2023-04-09T02:00:31.295Z,88.82
2023-04-09T02:01:31.691Z,88.62
2023-04-09T02:02:32.002Z,88.41
2023-04-09T02:03:32.182Z,88.31
2023-04-09T02:04:31.453Z,88.31
2023-04-09T02:05:31.718Z,88.20
2023-04-09T02:06:33.856Z,87.99
2023-04-09T02:07:31.264Z,87.69
2023-04-09T02:08:31.554Z,87.38
2023-04-09T02:09:31.851Z,87.59
2023-04-09T02:10:31.073Z,87.48
2023-04-09T02:11:31.384Z,87.38
2023-04-09T02:12:31.705Z,87.17
2023-04-09T02:13:31.906Z,87.27
2023-04-09T02:14:32.127Z,87.38
2023-04-09T02:15:31.481Z,87.27
2023-04-09T02:16:31.741Z,87.27
2023-04-09T02:17:31.994Z,87.17
2023-04-09T02:18:31.370Z,86.97
2023-04-09T02:19:31.529Z,87.07
2023-04-09T02:20:32.780Z,87.07
2023-04-09T02:21:31.099Z,87.17
2023-04-09T02:22:31.360Z,87.32
2023-04-09T02:23:31.640Z,87.42
2023-04-09T02:24:30.910Z,87.42
2023-04-09T02:25:31.189Z,87.42
2023-04-09T02:26:31.414Z,87.27
2023-04-09T02:27:31.746Z,87.17
2023-04-09T02:28:30.989Z,87.17
2023-04-09T02:29:31.663Z,87.07
2023-04-09T02:30:31.564Z,87.07
2023-04-09T02:31:30.831Z,87.11
2023-04-09T02:32:31.066Z,87.01
2023-04-09T02:33:31.340Z,86.90
2023-04-09T02:34:31.609Z,86.80
2023-04-09T02:35:30.914Z,86.90
2023-04-09T02:36:31.213Z,86.90
2023-04-09T02:37:31.450Z,86.90
2023-04-09T02:38:30.707Z,86.90
2023-04-09T02:39:31.033Z,86.80
2023-04-09T02:40:31.350Z,86.60
2023-04-09T02:41:30.544Z,86.60
2023-04-09T02:42:30.885Z,86.60
2023-04-09T02:43:31.149Z,86.60
2023-04-09T02:44:31.478Z,86.43
2023-04-09T02:45:30.685Z,86.32
2023-04-09T02:46:31.004Z,86.22
2023-04-09T02:47:32.207Z,86.12
2023-04-09T02:48:30.490Z,86.02
2023-04-09T02:49:30.806Z,86.12
2023-04-09T02:50:31.133Z,86.02
2023-04-09T02:51:31.411Z,86.02
2023-04-09T02:52:30.656Z,85.81
2023-04-09T02:53:30.976Z,85.81
2023-04-09T02:54:31.276Z,85.81
2023-04-09T02:55:31.513Z,86.02
2023-04-09T02:56:31.873Z,86.12
2023-04-09T02:57:33.240Z,86.02
2023-04-09T02:58:31.426Z,85.81
2023-04-09T02:59:31.702Z,85.71
2023-04-09T03:00:31.074Z,85.81
2023-04-09T03:01:30.383Z,85.91
2023-04-09T03:02:30.734Z,86.02
2023-04-09T03:03:31.190Z,86.12
2023-04-09T03:04:31.227Z,86.32
2023-04-09T03:05:30.563Z,86.47
2023-04-09T03:06:30.819Z,86.68
2023-04-09T03:07:31.109Z,86.78
2023-04-09T03:08:30.384Z,86.88
2023-04-09T03:09:30.771Z,87.08
2023-04-09T03:10:31.959Z,87.29
2023-04-09T03:11:30.275Z,87.60
2023-04-09T03:12:30.567Z,87.81
2023-04-09T03:13:30.871Z,88.02
2023-04-09T03:14:30.177Z,88.22
2023-04-09T03:15:30.466Z,88.53
2023-04-09T03:16:30.776Z,88.84
2023-04-09T03:17:31.067Z,89.05
2023-04-09T03:18:30.284Z,89.46
2023-04-09T03:19:31.613Z,89.67
2023-04-09T03:20:30.929Z,89.87
2023-04-09T03:21:30.200Z,90.08
2023-04-09T03:22:31.443Z,90.08
2023-04-09T03:23:30.796Z,90.19
2023-04-09T03:24:30.079Z,90.19
2023-04-09T03:25:30.392Z,90.39
2023-04-09T03:26:30.692Z,90.49
2023-04-09T03:27:30.964Z,90.59
2023-04-09T03:28:30.163Z,90.70
2023-04-09T03:29:30.480Z,90.70
2023-04-09T03:30:30.790Z,90.70
2023-04-09T03:31:30.118Z,90.70
2023-04-09T03:32:30.738Z,90.59
2023-04-09T03:33:30.629Z,90.49
2023-04-09T03:34:29.880Z,90.28
2023-04-09T03:35:31.183Z,90.19
2023-04-09T03:36:31.425Z,90.08
2023-04-09T03:37:30.759Z,89.98
2023-04-09T03:38:30.067Z,89.98
2023-04-09T03:39:30.325Z,89.87
2023-04-09T03:40:30.611Z,89.67
2023-04-09T03:41:29.875Z,89.56
2023-04-09T03:42:30.186Z,89.56
2023-04-09T03:43:30.779Z,89.36
2023-04-09T03:44:29.773Z,89.15
2023-04-09T03:45:30.091Z,89.15
2023-04-09T03:46:30.437Z,89.05
2023-04-09T03:47:30.895Z,88.95
2023-04-09T03:48:29.892Z,88.95
2023-04-09T03:49:30.257Z,88.84
2023-04-09T03:50:30.514Z,88.74
2023-04-09T03:51:30.685Z,88.64
2023-04-09T03:52:30.002Z,88.64
2023-04-09T03:53:30.303Z,88.53
2023-04-09T03:54:30.635Z,88.53
2023-04-09T03:55:29.797Z,88.43
2023-04-09T03:56:30.142Z,88.32
2023-04-09T03:57:30.397Z,88.32
2023-04-09T03:58:29.652Z,88.32
2023-04-09T03:59:29.956Z,88.43
2023-04-09T04:00:30.257Z,88.32
2023-04-09T04:01:30.493Z,88.32
2023-04-09T04:02:29.851Z,88.22
2023-04-09T04:03:30.268Z,88.12
2023-04-09T04:04:31.419Z,88.02
2023-04-09T04:05:30.548Z,87.92
2023-04-09T04:06:29.930Z,87.81
2023-04-09T04:07:31.177Z,87.81
2023-04-09T04:08:30.370Z,87.81
2023-04-09T04:09:29.694Z,87.87
2023-04-09T04:10:30.953Z,87.77
2023-04-09T04:11:30.433Z,87.66
2023-04-09T04:12:29.540Z,87.56
2023-04-09T04:13:29.900Z,87.46
2023-04-09T04:14:31.084Z,87.46
2023-04-09T04:15:29.406Z,87.60
2023-04-09T04:16:29.711Z,87.71
2023-04-09T04:17:29.978Z,87.60
2023-04-09T04:18:30.236Z,87.71
2023-04-09T04:19:29.524Z,87.71
2023-04-09T04:20:29.795Z,87.71
2023-04-09T04:21:30.073Z,87.71
2023-04-09T04:22:29.340Z,87.60
2023-04-09T04:23:29.672Z,87.71
2023-04-09T04:24:29.940Z,87.71
2023-04-09T04:25:29.178Z,87.60
2023-04-09T04:26:29.510Z,87.71
2023-04-09T04:27:29.773Z,87.81
2023-04-09T04:28:30.084Z,87.81
2023-04-09T04:29:29.347Z,87.92
2023-04-09T04:30:29.604Z,87.81
2023-04-09T04:31:29.966Z,87.81
2023-04-09T04:32:29.152Z,87.92
2023-04-09T04:33:29.416Z,87.92
2023-04-09T04:34:29.735Z,88.12
2023-04-09T04:35:30.043Z,88.22
2023-04-09T04:36:29.294Z,88.12
2023-04-09T04:37:29.575Z,88.12
2023-04-09T04:38:29.891Z,88.22
2023-04-09T04:39:29.129Z,88.22
2023-04-09T04:40:29.424Z,88.32
2023-04-09T04:41:29.743Z,88.43
2023-04-09T04:42:29.014Z,88.53
2023-04-09T04:43:29.300Z,88.53
2023-04-09T04:44:29.628Z,88.57
2023-04-09T04:45:29.959Z,88.57
2023-04-09T04:46:29.129Z,88.68
2023-04-09T04:47:29.537Z,88.57
2023-04-09T04:48:29.705Z,88.57
2023-04-09T04:49:28.959Z,88.57
2023-04-09T04:50:29.286Z,88.57
2023-04-09T04:51:29.557Z,88.68
2023-04-09T04:52:28.810Z,88.78
2023-04-09T04:53:29.133Z,88.57
2023-04-09T04:54:29.416Z,88.47
2023-04-09T04:55:29.753Z,88.37
2023-04-09T04:56:28.937Z,88.37
2023-04-09T04:57:29.252Z,88.37
2023-04-09T04:58:29.547Z,88.26
2023-04-09T04:59:28.826Z,88.16
2023-04-09T05:00:29.081Z,88.06
2023-04-09T05:01:29.823Z,88.06
2023-04-09T05:02:29.792Z,88.16
2023-04-09T05:03:28.983Z,88.20
2023-04-09T05:04:29.234Z,88.16
2023-04-09T05:05:29.530Z,88.10
2023-04-09T05:06:28.781Z,87.99
2023-04-09T05:07:29.194Z,87.99
2023-04-09T05:08:29.361Z,87.99
2023-04-09T05:09:28.628Z,87.99
2023-04-09T05:10:28.949Z,87.89
2023-04-09T05:11:29.241Z,87.79
2023-04-09T05:12:29.553Z,87.89
2023-04-09T05:13:29.728Z,87.79
2023-04-09T05:14:30.047Z,87.68
2023-04-09T05:15:29.380Z,87.58
2023-04-09T05:16:28.613Z,87.58
2023-04-09T05:17:28.977Z,87.58
2023-04-09T05:18:29.348Z,87.68
2023-04-09T05:19:28.467Z,87.68
2023-04-09T05:20:28.777Z,87.58
2023-04-09T05:21:29.099Z,87.44
2023-04-09T05:22:29.382Z,87.34
2023-04-09T05:23:28.667Z,87.13
2023-04-09T05:24:29.003Z,87.13
2023-04-09T05:25:29.307Z,87.13
2023-04-09T05:26:28.528Z,87.13
2023-04-09T05:27:28.845Z,87.13
2023-04-09T05:28:29.148Z,87.13
2023-04-09T05:29:28.454Z,87.23
2023-04-09T05:30:28.754Z,87.23
2023-04-09T05:31:29.040Z,87.02
2023-04-09T05:32:29.444Z,87.02
2023-04-09T05:33:28.655Z,87.23
2023-04-09T05:34:28.954Z,87.23
2023-04-09T05:35:29.294Z,87.23
2023-04-09T05:36:28.546Z,87.13
2023-04-09T05:37:28.859Z,87.13
2023-04-09T05:38:29.201Z,87.13
2023-04-09T05:39:28.420Z,87.13
2023-04-09T05:40:28.754Z,87.02
2023-04-09T05:41:29.071Z,86.92
2023-04-09T05:42:28.303Z,86.82
2023-04-09T05:43:28.622Z,86.92
2023-04-09T05:44:28.952Z,87.02
2023-04-09T05:45:28.139Z,86.92
2023-04-09T05:46:28.517Z,86.92
2023-04-09T05:47:28.813Z,86.82
2023-04-09T05:48:30.103Z,86.71
2023-04-09T05:49:28.379Z,86.61
2023-04-09T05:50:29.023Z,86.61
2023-04-09T05:51:29.000Z,86.51
2023-04-09T05:52:28.255Z,86.41
2023-04-09T05:53:28.578Z,86.47
2023-04-09T05:54:28.919Z,86.36
2023-04-09T05:55:28.154Z,86.36
2023-04-09T05:56:28.538Z,86.36
2023-04-09T05:57:28.732Z,86.26
2023-04-09T05:58:28.988Z,86.47
2023-04-09T05:59:28.328Z,86.47
2023-04-09T06:00:28.617Z,86.36
2023-04-09T06:01:28.927Z,86.36
2023-04-09T06:02:28.302Z,86.47
2023-04-09T06:03:29.613Z,86.36
2023-04-09T06:04:28.848Z,86.26
2023-04-09T06:05:28.076Z,86.12
2023-04-09T06:06:28.413Z,85.91
2023-04-09T06:07:29.057Z,85.81
2023-04-09T06:08:28.014Z,85.71
2023-04-09T06:09:28.312Z,85.71
2023-04-09T06:10:28.650Z,85.71
2023-04-09T06:11:27.924Z,85.50
2023-04-09T06:12:29.131Z,85.50
2023-04-09T06:13:28.617Z,85.71
2023-04-09T06:14:28.759Z,85.81
2023-04-09T06:15:28.057Z,85.81
2023-04-09T06:16:28.323Z,85.67
2023-04-09T06:17:28.623Z,85.77
2023-04-09T06:18:27.898Z,85.77
2023-04-09T06:19:28.269Z,85.67
2023-04-09T06:20:28.511Z,85.46
2023-04-09T06:21:27.750Z,85.46
2023-04-09T06:22:28.028Z,85.46
2023-04-09T06:23:27.778Z,85.46
2023-04-09T06:24:28.070Z,85.31
2023-04-09T06:25:28.373Z,85.31
2023-04-09T06:26:28.593Z,85.11
2023-04-09T06:27:27.819Z,85.01
2023-04-09T06:28:28.126Z,84.59
2023-04-09T06:29:28.674Z,84.80
2023-04-09T06:30:28.073Z,84.91
2023-04-09T06:31:28.449Z,84.80
2023-04-09T06:32:28.606Z,84.70
2023-04-09T06:33:27.838Z,84.80
2023-04-09T06:34:28.065Z,84.87
2023-04-09T06:35:29.340Z,84.35
2023-04-09T06:36:28.567Z,84.25
2023-04-09T06:37:28.023Z,83.84
2023-04-09T06:38:29.174Z,83.49
2023-04-09T06:39:28.413Z,83.70
2023-04-09T06:40:27.736Z,84.31
2023-04-09T06:41:28.060Z,84.27
2023-04-09T06:42:28.444Z,83.25
2023-04-09T06:43:28.584Z,83.04
2023-04-09T06:44:28.816Z,82.83
2023-04-09T06:45:29.138Z,83.11
2023-04-09T06:46:27.439Z,83.00
2023-04-09T06:47:28.652Z,82.18
2023-04-09T06:48:28.028Z,81.42
2023-04-09T06:49:29.296Z,81.21
2023-04-09T06:50:27.593Z,81.21
2023-04-09T06:51:27.840Z,80.29
2023-04-09T06:52:28.100Z,80.19
2023-04-09T06:53:27.498Z,80.60
2023-04-09T06:54:27.691Z,80.60
2023-04-09T06:55:28.911Z,79.47
2023-04-09T06:56:28.212Z,78.85
2023-04-09T06:57:28.421Z,78.54
2023-04-09T06:58:28.723Z,78.54
2023-04-09T06:59:28.061Z,78.33
2023-04-09T07:00:28.315Z,78.23
2023-04-09T07:01:27.643Z,77.92
2023-04-09T07:02:28.217Z,78.03
2023-04-09T07:03:29.411Z,78.13
2023-04-09T07:04:28.435Z,78.03
2023-04-09T07:05:27.698Z,77.72
2023-04-09T07:06:27.935Z,77.82
2023-04-09T07:07:27.248Z,78.20
2023-04-09T07:08:28.463Z,78.30
2023-04-09T07:09:28.720Z,78.03
2023-04-09T07:10:29.022Z,78.30
2023-04-09T07:11:27.510Z,77.99
2023-04-09T07:12:28.486Z,77.89
2023-04-09T07:14:27.028Z,78.30
2023-04-09T07:15:28.234Z,78.50
2023-04-09T07:16:28.551Z,78.92
2023-04-09T07:17:28.755Z,79.22
2023-04-09T07:18:27.001Z,77.34
2023-04-09T07:19:28.199Z,77.55
2023-04-09T07:20:27.517Z,77.75
2023-04-09T07:21:27.785Z,78.06
2023-04-09T07:22:27.042Z,78.06
2023-04-09T07:23:28.365Z,77.44
2023-04-09T07:24:27.669Z,77.55
2023-04-09T07:25:26.904Z,77.65
2023-04-09T07:26:28.071Z,77.85
2023-04-09T07:27:27.429Z,77.75
2023-04-09T07:28:27.679Z,77.85
2023-04-09T07:29:26.862Z,77.65
2023-04-09T07:30:28.140Z,77.03
2023-04-09T07:31:28.461Z,76.28
2023-04-09T07:32:28.913Z,77.00
2023-04-09T07:33:27.870Z,76.79
2023-04-09T07:34:28.107Z,75.97
2023-04-09T07:35:28.362Z,76.38
2023-04-09T07:36:28.682Z,76.14
2023-04-09T07:37:27.941Z,76.24
2023-04-09T07:38:28.235Z,75.93
2023-04-09T07:39:28.404Z,76.45
2023-04-09T07:40:27.646Z,76.96
2023-04-09T07:41:27.030Z,76.24
2023-04-09T07:42:28.310Z,76.62
2023-04-09T07:43:28.796Z,76.62
2023-04-09T07:44:26.707Z,76.55
2023-04-09T07:45:26.980Z,76.20
2023-04-09T07:46:27.289Z,75.90
2023-04-09T07:47:27.577Z,74.98
2023-04-09T07:48:26.799Z,74.26
2023-04-09T07:49:27.052Z,75.18
2023-04-09T07:50:27.271Z,73.74
2023-04-09T07:51:26.467Z,74.66
2023-04-09T07:52:26.716Z,75.08
2023-04-09T07:53:26.938Z,75.08
2023-04-09T07:54:27.211Z,74.94
2023-04-09T07:55:26.475Z,75.56
2023-04-09T07:56:26.706Z,75.56
2023-04-09T07:57:26.958Z,75.15
2023-04-09T07:58:27.251Z,74.94
2023-04-09T07:59:27.408Z,74.94
2023-04-09T08:00:27.701Z,74.73
2023-04-09T08:01:26.974Z,75.45
2023-04-09T08:02:27.460Z,75.76
2023-04-09T08:03:26.651Z,74.94
2023-04-09T08:04:26.767Z,73.91
2023-04-09T08:05:27.982Z,74.80
2023-04-09T08:06:28.213Z,75.01
2023-04-09T08:07:26.424Z,75.01
2023-04-09T08:08:26.717Z,74.90
2023-04-09T08:09:26.961Z,74.90
2023-04-09T08:10:27.278Z,74.39
2023-04-09T08:11:26.643Z,73.78
2023-04-09T08:12:26.690Z,73.64
2023-04-09T08:13:27.872Z,74.15
2023-04-09T08:14:28.119Z,74.26
2023-04-09T08:15:26.385Z,73.95
2023-04-09T08:16:26.733Z,74.05
2023-04-09T08:17:26.919Z,74.05
2023-04-09T08:18:26.100Z,73.23
2023-04-09T08:19:27.298Z,72.58
2023-04-09T08:20:26.600Z,72.48
2023-04-09T08:21:26.852Z,72.78
2023-04-09T08:22:27.117Z,72.17
2023-04-09T08:23:26.253Z,71.56
2023-04-09T08:24:26.492Z,70.33
2023-04-09T08:25:26.734Z,69.51
2023-04-09T08:26:27.040Z,68.76
2023-04-09T08:27:26.132Z,69.17
2023-04-09T08:28:26.590Z,67.94
2023-04-09T08:29:26.593Z,68.15
2023-04-09T08:30:26.858Z,69.27
2023-04-09T08:31:26.140Z,70.57
2023-04-09T08:32:26.335Z,70.67
2023-04-09T08:33:26.542Z,69.34
2023-04-09T08:34:26.769Z,69.04
2023-04-09T08:35:25.925Z,68.93
2023-04-09T08:36:26.257Z,70.57
2023-04-09T08:37:26.361Z,70.47
2023-04-09T08:38:26.587Z,71.19
2023-04-09T08:39:26.892Z,71.80
2023-04-09T08:40:26.026Z,72.92
2023-04-09T08:41:26.221Z,72.52
2023-04-09T08:42:26.508Z,72.92
2023-04-09T08:43:41.934Z,73.33
2023-04-09T08:44:26.880Z,72.00
2023-04-09T08:45:26.214Z,71.90
2023-04-09T08:46:26.467Z,70.88
2023-04-09T08:47:26.585Z,71.29
2023-04-09T08:48:25.842Z,71.49
2023-04-09T08:49:25.988Z,71.90
2023-04-09T08:50:26.178Z,72.41
2023-04-09T08:51:26.456Z,72.38
2023-04-09T08:52:26.599Z,73.10
2023-04-09T08:53:25.779Z,71.36
2023-04-09T08:54:25.986Z,69.72
2023-04-09T08:55:26.228Z,70.51
2023-04-09T08:56:26.428Z,70.51
2023-04-09T08:57:25.676Z,70.27
2023-04-09T08:58:25.811Z,70.37
2023-04-09T08:59:26.053Z,71.09
2023-04-09T09:00:26.243Z,71.36
2023-04-09T09:01:26.549Z,69.52
2023-04-09T09:02:25.752Z,70.31
2023-04-09T09:03:25.964Z,69.59
2023-04-09T09:04:27.153Z,69.25
2023-04-09T09:05:27.326Z,67.65
2023-04-09T09:06:25.505Z,66.94
2023-04-09T09:07:26.675Z,67.65
2023-04-09T09:08:26.008Z,67.27
2023-04-09T09:09:26.143Z,67.27
2023-04-09T09:10:27.350Z,67.07
2023-04-09T09:11:25.562Z,67.79
2023-04-09T09:12:26.067Z,68.80
2023-04-09T09:13:26.119Z,70.03
2023-04-09T09:14:26.307Z,70.64
2023-04-09T09:15:26.405Z,70.40
2023-04-09T09:16:25.685Z,67.45
2023-04-09T09:17:25.955Z,66.83
2023-04-09T09:18:26.140Z,67.45
2023-04-09T09:19:25.346Z,68.64
2023-04-09T09:20:26.530Z,67.72
2023-04-09T09:21:26.748Z,68.03
2023-04-09T09:22:26.053Z,68.33
2023-04-09T09:23:25.208Z,68.44
2023-04-09T09:24:25.482Z,66.83
2023-04-09T09:25:25.897Z,66.02
2023-04-09T09:26:26.812Z,65.61
2023-04-09T09:27:26.121Z,67.52
2023-04-09T09:28:25.269Z,68.03
2023-04-09T09:29:25.503Z,69.35
2023-04-09T09:30:25.763Z,67.21
2023-04-09T09:31:26.070Z,66.57
2023-04-09T09:32:26.268Z,66.06
2023-04-09T09:33:25.279Z,67.59
2023-04-09T09:34:25.553Z,66.94
2023-04-09T09:35:25.750Z,66.33
2023-04-09T09:36:26.001Z,66.23
2023-04-09T09:37:25.136Z,65.62
2023-04-09T09:38:25.321Z,66.33
2023-04-09T09:39:25.543Z,65.72
2023-04-09T09:40:25.815Z,62.36
2023-04-09T09:41:27.006Z,62.08
2023-04-09T09:42:25.223Z,63.10
2023-04-09T09:43:25.379Z,64.63
2023-04-09T09:44:25.591Z,65.04
2023-04-09T09:45:25.829Z,64.94
2023-04-09T09:46:25.045Z,64.22
2023-04-09T09:47:25.348Z,64.43
2023-04-09T09:48:27.889Z,63.82
2023-04-09T09:49:25.651Z,63.71
2023-04-09T09:50:25.815Z,63.41
2023-04-09T09:51:24.981Z,63.51
2023-04-09T09:52:25.216Z,63.41
2023-04-09T09:53:25.375Z,62.49
2023-04-09T09:54:25.799Z,64.53
2023-04-09T09:55:25.822Z,63.51
2023-04-09T09:56:25.009Z,64.53
2023-04-09T09:57:25.212Z,64.43
2023-04-09T09:58:26.413Z,63.92
2023-04-09T09:59:25.635Z,63.23
2023-04-09T10:00:25.022Z,64.56
2023-04-09T10:01:25.115Z,63.75
2023-04-09T10:02:25.308Z,63.54
2023-04-09T10:03:25.454Z,62.14
2023-04-09T10:04:25.704Z,62.76
2023-04-09T10:05:24.860Z,62.24
2023-04-09T10:06:25.158Z,62.96
2023-04-09T10:07:25.279Z,63.67
2023-04-09T10:08:25.478Z,65.10
2023-04-09T10:09:24.649Z,66.50
2023-04-09T10:10:24.831Z,65.48
2023-04-09T10:11:25.062Z,63.75
2023-04-09T10:12:25.377Z,62.49
2023-04-09T10:13:26.420Z,63.92
2023-04-09T10:14:25.678Z,66.03
2023-04-09T10:15:24.844Z,65.19
2023-04-09T10:16:25.060Z,62.20
2023-04-09T10:17:25.153Z,62.51
2023-04-09T10:18:25.403Z,63.32
2023-04-09T10:19:25.498Z,62.20
2023-04-09T10:20:24.691Z,63.59
2023-04-09T10:21:24.792Z,63.39
2023-04-09T10:22:25.937Z,61.38
2023-04-09T10:23:25.184Z,61.90
2023-04-09T10:24:25.413Z,61.59
2023-04-09T10:25:24.485Z,61.52
2023-04-09T10:26:24.730Z,61.14
2023-04-09T10:27:24.892Z,61.65
2023-04-09T10:28:25.095Z,61.34
2023-04-09T10:29:26.119Z,61.24
2023-04-09T10:30:24.535Z,61.57
2023-04-09T10:31:24.690Z,63.41
2023-04-09T10:32:24.976Z,63.51
2023-04-09T10:33:25.104Z,62.49
2023-04-09T10:34:25.289Z,62.26
2023-04-09T10:35:24.509Z,61.24
2023-04-09T10:36:24.945Z,59.30
2023-04-09T10:37:24.919Z,60.32
2023-04-09T10:38:25.152Z,61.95
2023-04-09T10:39:24.340Z,63.24
2023-04-09T10:40:24.723Z,63.45
2023-04-09T10:41:24.793Z,60.80
2023-04-09T10:42:25.025Z,61.21
2023-04-09T10:43:24.199Z,61.11
2023-04-09T10:44:24.432Z,60.80
2023-04-09T10:45:24.593Z,61.31
2023-04-09T10:46:24.858Z,61.82
2023-04-09T10:47:25.083Z,60.70
2023-04-09T10:48:24.208Z,61.93
2023-04-09T10:49:24.501Z,61.44
2023-04-09T10:50:24.632Z,61.54
2023-04-09T10:51:24.869Z,61.85
2023-04-09T10:52:25.067Z,62.56
2023-04-09T10:53:24.310Z,62.16
2023-04-09T10:54:24.467Z,61.54
2023-04-09T10:55:24.725Z,60.32
2023-04-09T10:56:24.909Z,60.53
2023-04-09T10:57:24.122Z,59.30
2023-04-09T10:58:24.361Z,61.04
2023-04-09T10:59:24.496Z,61.65
2023-04-09T11:00:24.827Z,62.87
2023-04-09T11:01:24.918Z,61.44
2023-04-09T11:02:24.194Z,61.34
2023-04-09T11:03:24.574Z,61.65
2023-04-09T11:04:24.604Z,61.04
2023-04-09T11:05:24.882Z,62.66
2023-04-09T11:06:24.926Z,63.04
2023-04-09T11:07:26.144Z,63.96
2023-04-09T11:08:25.327Z,63.56
2023-04-09T11:09:25.522Z,62.92
2023-04-09T11:10:24.861Z,61.79
2023-04-09T11:11:23.966Z,63.32
2023-04-09T11:12:24.177Z,63.22
2023-04-09T11:13:24.382Z,62.40
2023-04-09T11:14:24.574Z,61.08
2023-04-09T11:15:23.731Z,61.08
2023-04-09T11:16:24.641Z,60.88
2023-04-09T11:17:24.186Z,60.88
2023-04-09T11:18:24.372Z,62.40
2023-04-09T11:19:24.615Z,60.88
2023-04-09T11:20:23.775Z,62.51
2023-04-09T11:21:24.006Z,60.16
2023-04-09T11:22:24.319Z,61.49
2023-04-09T11:23:24.469Z,62.40
2023-04-09T11:24:23.632Z,62.20
2023-04-09T11:25:23.903Z,61.90
2023-04-09T11:26:24.050Z,61.59
2023-04-09T11:27:24.308Z,61.59
2023-04-09T11:28:24.518Z,61.18
2023-04-09T11:29:23.642Z,61.59
2023-04-09T11:30:24.915Z,59.35
2023-04-09T11:31:24.127Z,59.86
2023-04-09T11:32:24.333Z,61.08
2023-04-09T11:33:24.541Z,61.38
2023-04-09T11:34:23.659Z,62.71
2023-04-09T11:35:23.903Z,63.42
2023-04-09T11:36:24.110Z,62.48
2023-04-09T11:37:24.287Z,61.46
2023-04-09T11:38:23.460Z,61.97
2023-04-09T11:39:23.691Z,60.85
2023-04-09T11:40:23.880Z,60.54
2023-04-09T11:41:25.067Z,61.46
2023-04-09T11:42:25.252Z,61.05
2023-04-09T11:43:23.467Z,60.75
2023-04-09T11:44:23.757Z,59.32
2023-04-09T11:45:23.962Z,58.17
2023-04-09T11:46:24.197Z,59.09
2023-04-09T11:47:23.428Z,59.60
2023-04-09T11:48:23.567Z,60.21
2023-04-09T11:49:23.808Z,59.60
2023-04-09T11:50:24.180Z,58.99
2023-04-09T11:51:24.205Z,59.09
2023-04-09T11:52:23.381Z,59.30
2023-04-09T11:53:23.599Z,59.30
2023-04-09T11:54:23.817Z,58.69
2023-04-09T11:55:24.028Z,59.80
2023-04-09T11:56:23.240Z,61.33
2023-04-09T11:57:23.425Z,59.09
2023-04-09T11:58:23.724Z,59.42
2023-04-09T11:59:23.828Z,58.30
2023-04-09T12:00:24.042Z,60.61
2023-04-09T12:01:23.203Z,61.02
2023-04-09T12:02:23.610Z,60.31
2023-04-09T12:03:23.860Z,60.11
2023-04-09T12:04:25.009Z,58.69
2023-04-09T12:05:24.967Z,58.78
2023-04-09T12:06:24.180Z,60.72
2023-04-09T12:07:24.319Z,58.38
2023-04-09T12:08:23.869Z,58.07
2023-04-09T12:09:24.791Z,57.46
2023-04-09T12:10:24.956Z,57.74
2023-04-09T12:11:24.145Z,57.03
2023-04-09T12:12:23.347Z,57.64
2023-04-09T12:13:23.557Z,59.67
2023-04-09T12:14:23.788Z,57.95
2023-04-09T12:15:23.987Z,57.74
2023-04-09T12:16:23.182Z,56.73
2023-04-09T12:17:23.380Z,57.13
2023-04-09T12:18:23.569Z,57.13
2023-04-09T12:19:24.765Z,58.15
2023-04-09T12:20:23.260Z,58.73
2023-04-09T12:21:23.196Z,58.33
2023-04-09T12:22:23.357Z,58.42
2023-04-09T12:23:23.592Z,58.63
2023-04-09T12:24:23.846Z,57.61
2023-04-09T12:25:22.951Z,59.03
2023-04-09T12:26:23.208Z,57.41
2023-04-09T12:27:23.401Z,58.42
2023-04-09T12:28:23.556Z,57.71
2023-04-09T12:29:23.755Z,57.38
2023-04-09T12:30:22.952Z,55.35
2023-04-09T12:31:23.138Z,56.47
2023-04-09T12:32:23.440Z,56.13
2023-04-09T12:33:23.509Z,56.65
2023-04-09T12:34:23.745Z,56.85
2023-04-09T12:35:23.014Z,58.54
2023-04-09T12:36:23.143Z,57.03
2023-04-09T12:37:23.395Z,53.58
2023-04-09T12:38:23.684Z,55.93
2023-04-09T12:39:23.726Z,57.84
2023-04-09T12:40:23.970Z,58.54
2023-04-09T12:41:23.225Z,56.62
2023-04-09T12:42:24.415Z,57.43
2023-04-09T12:43:23.576Z,56.92
2023-04-09T12:44:22.868Z,56.92
2023-04-09T12:45:23.070Z,56.01
2023-04-09T12:46:23.321Z,56.01
2023-04-09T12:47:23.637Z,56.72
2023-04-09T12:48:22.697Z,56.62
2023-04-09T12:49:22.865Z,55.30
2023-04-09T12:50:23.094Z,55.20
2023-04-09T12:51:24.279Z,56.44
2023-04-09T12:52:22.480Z,56.04
2023-04-09T12:53:22.707Z,56.04